»·PEaware :: FDX3171 KGJT-KSLC

FDX3171 :: KGJT-KSLC

FLIGHT INFORMATION

Flight Status: Arrived
Operator:
Federal Express
More flights by this operator :: More flights under this callsign
Pilot: David C. (16084)
Aircraft: BOEING 767-300
(B763)
More flights by this aircraft type
Origin: KGJT Walker
United States
Destination: KSLC Salt Lake City Intl
United States
More flights between these airports :: More routes between these airports
Route: +GRAND1 GJT J12 HELPR LEEHY5
File this flight plan on PilotEdge
Remarks: PBN / A1B1C1D1L1O1 DOF / 171025 REG / FDX3171 EET / KZLC0014 OPR / FDX PER / D RMK / TCAS SIMBRIEF
Altitude:
(Current/Filed)
28,000ft
Speed:
(Current/Filed)
504kts
Departed: 25-Oct-17 03:49 PM
Arrived: 25-Oct-17 04:24 PM
Distance/Time
Traveled:
188nm/0:35
Distance/Time
To Go:
Arrived

Flight Plot

Page will automatically refresh every two minutes.

Flight plan parsing failed; only flown route is shown


Map Options




Map Legend


Flown Route
Filed Route
Departure Airport
Arrival Airport
Navaid (VOR, NDB)
Fix

Horizontal Profiles

Position Reports

Time Latitude Longitude Heading Altitude Ground
Speed
25-Oct-17 15:24 39.122350 -108.526759 213 4868ft 0kts
25-Oct-17 15:25 39.122350 -108.526759 213 4868ft 0kts
25-Oct-17 15:26 39.122350 -108.526759 213 4868ft 0kts
25-Oct-17 15:27 39.122350 -108.526759 213 4868ft 0kts
25-Oct-17 15:28 39.122350 -108.526759 213 4868ft 0kts
25-Oct-17 15:29 39.122350 -108.526759 213 4868ft 0kts
25-Oct-17 15:30 39.122350 -108.526759 213 4868ft 0kts
25-Oct-17 15:31 39.122350 -108.526759 213 4868ft 0kts
25-Oct-17 15:32 39.122350 -108.526759 213 4868ft 0kts
25-Oct-17 15:33 39.122350 -108.526759 213 4868ft 0kts
25-Oct-17 15:34 39.122350 -108.526759 213 4868ft 0kts
25-Oct-17 15:35 39.122350 -108.526759 213 4868ft 0kts
25-Oct-17 15:36 39.122350 -108.526759 213 4868ft 0kts
25-Oct-17 15:37 39.122350 -108.526759 213 4868ft 0kts
25-Oct-17 15:38 39.122350 -108.526759 213 4868ft 0kts
25-Oct-17 15:39 39.122350 -108.526759 213 4868ft 0kts
25-Oct-17 15:40 39.122350 -108.526759 213 4868ft 0kts
25-Oct-17 15:41 39.122350 -108.526759 213 4868ft 0kts
25-Oct-17 15:42 39.122350 -108.526759 213 4868ft 0kts
25-Oct-17 15:43 39.122350 -108.526759 213 4868ft 0kts
25-Oct-17 15:44 39.122854 -108.526727 143 4868ft 2kts
25-Oct-17 15:45 39.122944 -108.526856 115 4868ft 0kts
25-Oct-17 15:46 39.122944 -108.526856 115 4868ft 0kts
25-Oct-17 15:47 39.122944 -108.526856 115 4868ft 0kts
25-Oct-17 15:48 39.122944 -108.526855 115 4868ft 0kts
25-Oct-17 15:49 39.122306 -108.523721 125 4868ft 23kts
25-Oct-17 15:50 39.118405 -108.516594 125 4868ft 0kts
25-Oct-17 15:51 39.118405 -108.516594 125 4868ft 0kts
25-Oct-17 15:52 39.118347 -108.516489 125 4868ft 3kts
25-Oct-17 15:53 39.119197 -108.515573 305 4868ft 17kts
25-Oct-17 15:54 39.137074 -108.548421 297 5667ft 219kts
25-Oct-17 15:55 39.150897 -108.633018 279 8407ft 252kts
25-Oct-17 15:56 39.164857 -108.723240 279 11227ft 264kts
25-Oct-17 15:57 39.203610 -108.804451 302 13970ft 283kts
25-Oct-17 15:58 39.240126 -108.895359 290 14670ft 304kts
25-Oct-17 15:59 39.273519 -108.997876 289 18495ft 315kts
25-Oct-17 16:00 39.306899 -109.102862 289 22001ft 324kts
25-Oct-17 16:01 39.341416 -109.211987 290 25020ft 335kts
25-Oct-17 16:02 39.377116 -109.325261 290 27670ft 348kts
25-Oct-17 16:03 39.416092 -109.449599 290 28241ft 409kts
25-Oct-17 16:04 39.462166 -109.597173 290 28222ft 464kts
25-Oct-17 16:05 39.508596 -109.746657 290 28188ft 460kts
25-Oct-17 16:06 39.555978 -109.900107 290 28005ft 453kts
25-Oct-17 16:07 39.601030 -110.046792 290 26398ft 426kts
25-Oct-17 16:08 39.645242 -110.191616 290 24925ft 437kts
25-Oct-17 16:09 39.689673 -110.337885 290 24270ft 437kts
25-Oct-17 16:10 39.734059 -110.484801 290 24263ft 437kts
25-Oct-17 16:11 39.783701 -110.628321 295 24263ft 438kts
25-Oct-17 16:12 39.835752 -110.764334 294 23511ft 412kts
25-Oct-17 16:13 39.886177 -110.897017 294 22509ft 408kts
25-Oct-17 16:14 39.935826 -111.028289 294 21290ft 405kts
25-Oct-17 16:15 39.985200 -111.159391 294 19978ft 400kts
25-Oct-17 16:16 40.025504 -111.266833 294 18888ft 394kts
25-Oct-17 16:17 40.080897 -111.415138 294 17357ft 386kts
25-Oct-17 16:18 40.127131 -111.539498 294 16060ft 380kts
25-Oct-17 16:19 40.172808 -111.662964 295 14998ft 375kts
25-Oct-17 16:20 40.228882 -111.749204 312 13734ft 373kts
25-Oct-17 16:21 40.315835 -111.856698 320 11980ft 367kts
25-Oct-17 16:22 40.383199 -111.920342 335 10971ft 360kts
25-Oct-17 16:23 40.483269 -111.939233 353 9970ft 345kts
25-Oct-17 16:24 40.573806 -111.949880 352 8188ft 240kts
25-Oct-17 16:25 40.638317 -111.957384 352 6978ft 224kts
25-Oct-17 16:26 40.687185 -111.963011 352 6095ft 192kts
25-Oct-17 16:27 40.733856 -111.968404 352 5049ft 150kts
25-Oct-17 16:28 40.774116 -111.973079 352 4309ft 144kts
25-Oct-17 16:29 40.795576 -111.976763 324 4238ft 20kts
25-Oct-17 16:30 40.795828 -111.977003 323 4238ft 6kts
25-Oct-17 16:31 40.802962 -111.978405 7 4238ft 32kts
25-Oct-17 16:32 40.805684 -111.984204 201 4238ft 14kts

Navigation Log

Ident Type
Flight plan parsing failed, navigation log unavailable